sensor_id;sensor_type;location;lat;lon;timestamp;temperature;humidity
18823;DHT22;9540;51.550;7.980;2022-10-31T00:00:15;12.80;99.90
18823;DHT22;9540;51.550;7.980;2022-10-31T00:02:42;12.80;99.90
18823;DHT22;9540;51.550;7.980;2022-10-31T00:05:10;12.70;99.90
18823;DHT22;9540;51.550;7.980;2022-10-31T00:07:37;12.60;99.90
18823;DHT22;9540;51.550;7.980;2022-10-31T00:10:05;12.60;99.90
18823;DHT22;9540;51.550;7.980;2022-10-31T00:12:33;12.60;99.90
18823;DHT22;9540;51.550;7.980;2022-10-31T00:15:00;12.50;99.90
18823;DHT22;9540;51.550;7.980;2022-10-31T00:17:27;12.40;99.90
18823;DHT22;9540;51.550;7.980;2022-10-31T00:19:53;12.40;99.90
18823;DHT22;9540;51.550;7.980;2022-10-31T00:22:22;12.40;99.90
18823;DHT22;9540;51.550;7.980;2022-10-31T00:24:49;12.30;99.90
18823;DHT22;9540;51.550;7.980;2022-10-31T00:27:16;12.30;99.90
18823;DHT22;9540;51.550;7.980;2022-10-31T00:29:43;12.30;99.90
18823;DHT22;9540;51.550;7.980;2022-10-31T00:32:10;12.30;99.90
18823;DHT22;9540;51.550;7.980;2022-10-31T00:34:37;12.20;99.90
18823;DHT22;9540;51.550;7.980;2022-10-31T00:37:03;12.20;99.90
18823;DHT22;9540;51.550;7.980;2022-10-31T00:39:32;12.20;99.90
18823;DHT22;9540;51.550;7.980;2022-10-31T00:41:59;12.20;99.90
18823;DHT22;9540;51.550;7.980;2022-10-31T00:44:26;12.10;99.90
18823;DHT22;9540;51.550;7.980;2022-10-31T00:46:53;12.10;99.90
18823;DHT22;9540;51.550;7.980;2022-10-31T00:49:19;12.00;99.90
18823;DHT22;9540;51.550;7.980;2022-10-31T00:51:46;12.00;99.90
18823;DHT22;9540;51.550;7.980;2022-10-31T00:54:13;12.00;99.90
18823;DHT22;9540;51.550;7.980;2022-10-31T00:56:41;12.10;99.90
18823;DHT22;9540;51.550;7.980;2022-10-31T00:59:09;12.10;99.90
18823;DHT22;9540;51.550;7.980;2022-10-31T01:01:36;12.10;99.90
18823;DHT22;9540;51.550;7.980;2022-10-31T01:04:06;12.20;99.90
18823;DHT22;9540;51.550;7.980;2022-10-31T01:06:33;12.20;99.90
18823;DHT22;9540;51.550;7.980;2022-10-31T01:09:00;12.30;99.90
18823;DHT22;9540;51.550;7.980;2022-10-31T01:11:27;12.40;99.90
18823;DHT22;9540;51.550;7.980;2022-10-31T01:13:55;12.40;99.90
18823;DHT22;9540;51.550;7.980;2022-10-31T01:16:25;12.40;99.90
18823;DHT22;9540;51.550;7.980;2022-10-31T01:18:52;12.50;99.90
18823;DHT22;9540;51.550;7.980;2022-10-31T01:21:21;12.60;99.90
18823;DHT22;9540;51.550;7.980;2022-10-31T01:23:48;12.70;99.90
18823;DHT22;9540;51.550;7.980;2022-10-31T01:26:17;12.70;99.90
18823;DHT22;9540;51.550;7.980;2022-10-31T01:28:46;12.80;99.90
18823;DHT22;9540;51.550;7.980;2022-10-31T01:31:17;12.80;99.90
18823;DHT22;9540;51.550;7.980;2022-10-31T01:33:44;12.80;99.90
18823;DHT22;9540;51.550;7.980;2022-10-31T01:36:16;12.80;99.90
18823;DHT22;9540;51.550;7.980;2022-10-31T01:38:44;12.80;99.90
18823;DHT22;9540;51.550;7.980;2022-10-31T01:41:14;12.80;99.90
18823;DHT22;9540;51.550;7.980;2022-10-31T01:43:49;12.80;99.90
18823;DHT22;9540;51.550;7.980;2022-10-31T01:46:22;12.80;99.90
18823;DHT22;9540;51.550;7.980;2022-10-31T01:48:50;12.80;99.90
18823;DHT22;9540;51.550;7.980;2022-10-31T01:51:20;12.90;99.90
18823;DHT22;9540;51.550;7.980;2022-10-31T01:53:48;12.90;99.90
18823;DHT22;9540;51.550;7.980;2022-10-31T01:56:17;12.90;99.90
18823;DHT22;9540;51.550;7.980;2022-10-31T01:58:45;13.00;99.90
18823;DHT22;9540;51.550;7.980;2022-10-31T02:01:14;13.00;99.90
18823;DHT22;9540;51.550;7.980;2022-10-31T02:03:45;13.00;99.90
18823;DHT22;9540;51.550;7.980;2022-10-31T02:06:21;13.00;99.90
18823;DHT22;9540;51.550;7.980;2022-10-31T02:08:50;12.90;99.90
18823;DHT22;9540;51.550;7.980;2022-10-31T02:11:18;12.90;99.90
18823;DHT22;9540;51.550;7.980;2022-10-31T02:13:45;12.90;99.90
18823;DHT22;9540;51.550;7.980;2022-10-31T02:16:13;12.90;99.90
18823;DHT22;9540;51.550;7.980;2022-10-31T02:18:40;12.90;99.90
18823;DHT22;9540;51.550;7.980;2022-10-31T02:21:13;13.00;99.90
18823;DHT22;9540;51.550;7.980;2022-10-31T02:24:18;13.10;99.90
18823;DHT22;9540;51.550;7.980;2022-10-31T02:27:16;13.20;99.90
18823;DHT22;9540;51.550;7.980;2022-10-31T02:30:02;13.30;99.90
18823;DHT22;9540;51.550;7.980;2022-10-31T02:32:41;13.30;99.90
18823;DHT22;9540;51.550;7.980;2022-10-31T02:35:23;13.40;99.90
18823;DHT22;9540;51.550;7.980;2022-10-31T02:37:55;13.40;99.90
18823;DHT22;9540;51.550;7.980;2022-10-31T02:40:27;13.40;99.90
18823;DHT22;9540;51.550;7.980;2022-10-31T02:43:04;13.40;99.90
18823;DHT22;9540;51.550;7.980;2022-10-31T02:45:35;13.40;99.90
18823;DHT22;9540;51.550;7.980;2022-10-31T02:48:10;13.40;99.90
18823;DHT22;9540;51.550;7.980;2022-10-31T02:50:47;13.40;99.90
18823;DHT22;9540;51.550;7.980;2022-10-31T02:53:16;13.30;99.90
18823;DHT22;9540;51.550;7.980;2022-10-31T02:55:51;13.20;99.90
18823;DHT22;9540;51.550;7.980;2022-10-31T02:58:22;13.10;99.90
18823;DHT22;9540;51.550;7.980;2022-10-31T03:01:20;13.00;99.90
18823;DHT22;9540;51.550;7.980;2022-10-31T03:04:02;12.90;99.90
18823;DHT22;9540;51.550;7.980;2022-10-31T03:06:37;12.80;99.90
18823;DHT22;9540;51.550;7.980;2022-10-31T03:09:12;12.70;99.90
18823;DHT22;9540;51.550;7.980;2022-10-31T03:11:45;12.60;99.90
18823;DHT22;9540;51.550;7.980;2022-10-31T03:14:20;12.50;99.90
18823;DHT22;9540;51.550;7.980;2022-10-31T03:16:50;12.40;99.90
18823;DHT22;9540;51.550;7.980;2022-10-31T03:19:21;12.30;99.90
18823;DHT22;9540;51.550;7.980;2022-10-31T03:21:57;12.20;99.90
18823;DHT22;9540;51.550;7.980;2022-10-31T03:24:27;12.10;99.90
18823;DHT22;9540;51.550;7.980;2022-10-31T03:26:58;12.00;99.90
18823;DHT22;9540;51.550;7.980;2022-10-31T03:29:28;11.90;99.90
18823;DHT22;9540;51.550;7.980;2022-10-31T03:31:59;11.80;99.90
18823;DHT22;9540;51.550;7.980;2022-10-31T03:34:30;11.70;99.90
18823;DHT22;9540;51.550;7.980;2022-10-31T03:37:00;11.60;99.90
18823;DHT22;9540;51.550;7.980;2022-10-31T03:39:28;11.50;99.90
18823;DHT22;9540;51.550;7.980;2022-10-31T03:41:59;11.50;99.90
18823;DHT22;9540;51.550;7.980;2022-10-31T03:44:27;11.40;99.90
18823;DHT22;9540;51.550;7.980;2022-10-31T03:46:56;11.30;99.90
18823;DHT22;9540;51.550;7.980;2022-10-31T03:49:23;11.30;99.90
18823;DHT22;9540;51.550;7.980;2022-10-31T03:51:56;11.20;99.90
18823;DHT22;9540;51.550;7.980;2022-10-31T03:54:26;11.20;99.90
18823;DHT22;9540;51.550;7.980;2022-10-31T03:57:01;11.10;99.90
18823;DHT22;9540;51.550;7.980;2022-10-31T03:59:34;11.00;99.90
18823;DHT22;9540;51.550;7.980;2022-10-31T04:02:05;11.00;99.90
18823;DHT22;9540;51.550;7.980;2022-10-31T04:04:33;11.00;99.90
18823;DHT22;9540;51.550;7.980;2022-10-31T04:07:03;11.00;99.90
18823;DHT22;9540;51.550;7.980;2022-10-31T04:09:33;11.10;99.90
18823;DHT22;9540;51.550;7.980;2022-10-31T04:12:03;11.00;99.90
18823;DHT22;9540;51.550;7.980;2022-10-31T04:14:32;11.10;99.90
18823;DHT22;9540;51.550;7.980;2022-10-31T04:17:01;11.00;99.90
18823;DHT22;9540;51.550;7.980;2022-10-31T04:19:29;11.10;99.90
18823;DHT22;9540;51.550;7.980;2022-10-31T04:21:56;11.20;99.90
18823;DHT22;9540;51.550;7.980;2022-10-31T04:24:24;11.30;99.90
18823;DHT22;9540;51.550;7.980;2022-10-31T04:26:51;11.30;99.90
18823;DHT22;9540;51.550;7.980;2022-10-31T04:29:18;11.40;99.90
18823;DHT22;9540;51.550;7.980;2022-10-31T04:31:45;11.40;99.90
18823;DHT22;9540;51.550;7.980;2022-10-31T04:34:12;11.50;99.90
18823;DHT22;9540;51.550;7.980;2022-10-31T04:36:39;11.60;99.90
18823;DHT22;9540;51.550;7.980;2022-10-31T04:39:06;11.60;99.90
18823;DHT22;9540;51.550;7.980;2022-10-31T04:41:34;11.60;99.90
18823;DHT22;9540;51.550;7.980;2022-10-31T04:44:01;11.70;99.90
18823;DHT22;9540;51.550;7.980;2022-10-31T04:46:28;11.70;99.90
18823;DHT22;9540;51.550;7.980;2022-10-31T04:48:55;11.70;99.90
18823;DHT22;9540;51.550;7.980;2022-10-31T04:51:22;11.70;99.90
18823;DHT22;9540;51.550;7.980;2022-10-31T04:53:49;11.70;99.90
18823;DHT22;9540;51.550;7.980;2022-10-31T04:56:16;11.80;99.90
18823;DHT22;9540;51.550;7.980;2022-10-31T04:58:54;11.80;99.90
18823;DHT22;9540;51.550;7.980;2022-10-31T05:01:21;11.80;99.90
18823;DHT22;9540;51.550;7.980;2022-10-31T05:03:47;11.70;99.90
18823;DHT22;9540;51.550;7.980;2022-10-31T05:06:14;11.70;99.90
18823;DHT22;9540;51.550;7.980;2022-10-31T05:08:42;11.60;99.90
18823;DHT22;9540;51.550;7.980;2022-10-31T05:11:09;11.50;99.90
18823;DHT22;9540;51.550;7.980;2022-10-31T05:13:36;11.50;99.90
18823;DHT22;9540;51.550;7.980;2022-10-31T05:16:05;11.50;99.90
18823;DHT22;9540;51.550;7.980;2022-10-31T05:18:38;11.50;99.90
18823;DHT22;9540;51.550;7.980;2022-10-31T05:21:04;11.40;99.90
18823;DHT22;9540;51.550;7.980;2022-10-31T05:23:31;11.40;99.90
18823;DHT22;9540;51.550;7.980;2022-10-31T05:25:58;11.30;99.90
18823;DHT22;9540;51.550;7.980;2022-10-31T05:28:25;11.20;99.90
18823;DHT22;9540;51.550;7.980;2022-10-31T05:30:52;11.00;99.90
18823;DHT22;9540;51.550;7.980;2022-10-31T05:33:20;11.00;99.90
18823;DHT22;9540;51.550;7.980;2022-10-31T05:35:48;10.90;99.90
18823;DHT22;9540;51.550;7.980;2022-10-31T05:38:14;10.90;99.90
18823;DHT22;9540;51.550;7.980;2022-10-31T05:40:41;10.90;99.90
18823;DHT22;9540;51.550;7.980;2022-10-31T05:43:08;10.70;99.90
18823;DHT22;9540;51.550;7.980;2022-10-31T05:45:35;10.70;99.90
18823;DHT22;9540;51.550;7.980;2022-10-31T05:48:03;10.60;99.90
18823;DHT22;9540;51.550;7.980;2022-10-31T05:50:34;10.60;99.90
18823;DHT22;9540;51.550;7.980;2022-10-31T05:53:04;10.60;99.90
18823;DHT22;9540;51.550;7.980;2022-10-31T05:55:31;10.50;99.90
18823;DHT22;9540;51.550;7.980;2022-10-31T05:57:58;10.50;99.90
18823;DHT22;9540;51.550;7.980;2022-10-31T06:00:26;10.50;99.90
18823;DHT22;9540;51.550;7.980;2022-10-31T06:02:58;10.50;99.90
18823;DHT22;9540;51.550;7.980;2022-10-31T06:05:25;10.60;99.90
18823;DHT22;9540;51.550;7.980;2022-10-31T06:07:54;10.60;99.90
18823;DHT22;9540;51.550;7.980;2022-10-31T06:10:21;10.60;99.90
18823;DHT22;9540;51.550;7.980;2022-10-31T06:12:48;10.60;99.90
18823;DHT22;9540;51.550;7.980;2022-10-31T06:15:16;10.60;99.90
18823;DHT22;9540;51.550;7.980;2022-10-31T06:17:43;10.60;99.90
18823;DHT22;9540;51.550;7.980;2022-10-31T06:20:11;10.70;99.90
18823;DHT22;9540;51.550;7.980;2022-10-31T06:22:38;10.60;99.90
18823;DHT22;9540;51.550;7.980;2022-10-31T06:25:07;10.60;99.90
18823;DHT22;9540;51.550;7.980;2022-10-31T06:27:34;10.60;99.90
18823;DHT22;9540;51.550;7.980;2022-10-31T06:30:01;10.60;99.90
18823;DHT22;9540;51.550;7.980;2022-10-31T06:32:27;10.60;99.90
18823;DHT22;9540;51.550;7.980;2022-10-31T06:34:54;10.60;99.90
18823;DHT22;9540;51.550;7.980;2022-10-31T06:37:21;10.70;99.90
18823;DHT22;9540;51.550;7.980;2022-10-31T06:39:48;10.70;99.90
18823;DHT22;9540;51.550;7.980;2022-10-31T06:42:17;10.60;99.90
18823;DHT22;9540;51.550;7.980;2022-10-31T06:44:44;10.60;99.90
18823;DHT22;9540;51.550;7.980;2022-10-31T06:47:11;10.60;99.90
18823;DHT22;9540;51.550;7.980;2022-10-31T06:49:38;10.60;99.90
18823;DHT22;9540;51.550;7.980;2022-10-31T06:52:08;10.60;99.90
18823;DHT22;9540;51.550;7.980;2022-10-31T06:54:35;10.70;99.90
18823;DHT22;9540;51.550;7.980;2022-10-31T06:57:02;10.70;99.90
18823;DHT22;9540;51.550;7.980;2022-10-31T06:59:31;10.70;99.90
18823;DHT22;9540;51.550;7.980;2022-10-31T07:01:58;10.70;99.90
18823;DHT22;9540;51.550;7.980;2022-10-31T07:04:25;10.80;99.90
18823;DHT22;9540;51.550;7.980;2022-10-31T07:06:52;10.90;99.90
18823;DHT22;9540;51.550;7.980;2022-10-31T07:09:19;11.00;99.90
18823;DHT22;9540;51.550;7.980;2022-10-31T07:11:46;11.10;99.90
18823;DHT22;9540;51.550;7.980;2022-10-31T07:14:13;11.20;99.90
18823;DHT22;9540;51.550;7.980;2022-10-31T07:16:41;11.30;99.90
18823;DHT22;9540;51.550;7.980;2022-10-31T07:19:08;11.30;99.90
18823;DHT22;9540;51.550;7.980;2022-10-31T07:21:35;11.40;99.90
18823;DHT22;9540;51.550;7.980;2022-10-31T07:24:02;11.50;99.90
18823;DHT22;9540;51.550;7.980;2022-10-31T07:26:29;11.60;99.90
18823;DHT22;9540;51.550;7.980;2022-10-31T07:28:56;11.60;99.90
18823;DHT22;9540;51.550;7.980;2022-10-31T07:31:24;11.80;99.90
18823;DHT22;9540;51.550;7.980;2022-10-31T07:33:52;11.90;99.90
18823;DHT22;9540;51.550;7.980;2022-10-31T07:36:19;12.00;99.90
18823;DHT22;9540;51.550;7.980;2022-10-31T07:38:47;12.20;99.90
18823;DHT22;9540;51.550;7.980;2022-10-31T07:41:14;12.30;99.90
18823;DHT22;9540;51.550;7.980;2022-10-31T07:43:41;12.40;99.90
18823;DHT22;9540;51.550;7.980;2022-10-31T07:46:08;12.70;99.90
18823;DHT22;9540;51.550;7.980;2022-10-31T07:48:36;13.10;99.90
18823;DHT22;9540;51.550;7.980;2022-10-31T07:51:05;13.40;99.90
18823;DHT22;9540;51.550;7.980;2022-10-31T07:53:33;13.70;99.90
18823;DHT22;9540;51.550;7.980;2022-10-31T07:56:00;14.00;99.90
18823;DHT22;9540;51.550;7.980;2022-10-31T07:58:27;14.10;99.90
18823;DHT22;9540;51.550;7.980;2022-10-31T08:00:54;14.20;99.90
18823;DHT22;9540;51.550;7.980;2022-10-31T08:03:27;14.20;99.90
18823;DHT22;9540;51.550;7.980;2022-10-31T08:05:55;14.20;99.90
18823;DHT22;9540;51.550;7.980;2022-10-31T08:08:24;14.20;99.90
18823;DHT22;9540;51.550;7.980;2022-10-31T08:10:53;14.10;99.90
18823;DHT22;9540;51.550;7.980;2022-10-31T08:13:21;14.20;99.90
18823;DHT22;9540;51.550;7.980;2022-10-31T08:15:48;14.20;99.90
18823;DHT22;9540;51.550;7.980;2022-10-31T08:18:16;14.30;99.90
18823;DHT22;9540;51.550;7.980;2022-10-31T08:20:43;14.20;99.90
18823;DHT22;9540;51.550;7.980;2022-10-31T08:23:11;14.30;99.90
18823;DHT22;9540;51.550;7.980;2022-10-31T08:25:43;14.40;99.90
18823;DHT22;9540;51.550;7.980;2022-10-31T08:28:12;14.50;99.90
18823;DHT22;9540;51.550;7.980;2022-10-31T08:30:40;14.60;99.90
18823;DHT22;9540;51.550;7.980;2022-10-31T08:33:11;14.60;99.90
18823;DHT22;9540;51.550;7.980;2022-10-31T08:35:38;14.70;99.90
18823;DHT22;9540;51.550;7.980;2022-10-31T08:38:06;14.70;99.90
18823;DHT22;9540;51.550;7.980;2022-10-31T08:40:34;14.70;99.90
18823;DHT22;9540;51.550;7.980;2022-10-31T08:43:05;14.60;99.90
18823;DHT22;9540;51.550;7.980;2022-10-31T08:45:33;14.50;99.90
18823;DHT22;9540;51.550;7.980;2022-10-31T08:48:02;14.40;99.90
18823;DHT22;9540;51.550;7.980;2022-10-31T08:50:31;14.40;99.90
18823;DHT22;9540;51.550;7.980;2022-10-31T08:53:02;14.50;99.90
18823;DHT22;9540;51.550;7.980;2022-10-31T08:55:29;14.60;99.90
18823;DHT22;9540;51.550;7.980;2022-10-31T08:57:56;14.70;99.90
18823;DHT22;9540;51.550;7.980;2022-10-31T09:00:25;14.90;99.90
18823;DHT22;9540;51.550;7.980;2022-10-31T09:02:56;15.20;99.90
18823;DHT22;9540;51.550;7.980;2022-10-31T09:05:23;15.50;99.90
18823;DHT22;9540;51.550;7.980;2022-10-31T09:07:50;15.80;99.90
18823;DHT22;9540;51.550;7.980;2022-10-31T09:10:17;16.00;99.90
18823;DHT22;9540;51.550;7.980;2022-10-31T09:12:44;16.10;99.90
18823;DHT22;9540;51.550;7.980;2022-10-31T09:15:11;16.20;99.90
18823;DHT22;9540;51.550;7.980;2022-10-31T09:17:46;16.50;99.90
18823;DHT22;9540;51.550;7.980;2022-10-31T09:20:13;16.90;99.90
18823;DHT22;9540;51.550;7.980;2022-10-31T09:22:40;17.20;99.90
18823;DHT22;9540;51.550;7.980;2022-10-31T09:25:08;17.50;99.90
18823;DHT22;9540;51.550;7.980;2022-10-31T09:27:35;17.80;99.90
18823;DHT22;9540;51.550;7.980;2022-10-31T09:30:02;18.00;99.90
18823;DHT22;9540;51.550;7.980;2022-10-31T09:32:29;18.00;99.90
18823;DHT22;9540;51.550;7.980;2022-10-31T09:34:57;18.40;99.90
18823;DHT22;9540;51.550;7.980;2022-10-31T09:37:24;18.70;99.90
18823;DHT22;9540;51.550;7.980;2022-10-31T09:39:51;18.60;99.90
18823;DHT22;9540;51.550;7.980;2022-10-31T09:45:18;18.30;99.90
18823;DHT22;9540;51.550;7.980;2022-10-31T09:48:01;18.20;99.90
18823;DHT22;9540;51.550;7.980;2022-10-31T09:50:41;18.10;99.90
18823;DHT22;9540;51.550;7.980;2022-10-31T09:53:13;17.90;99.90
18823;DHT22;9540;51.550;7.980;2022-10-31T09:55:45;17.90;99.90
18823;DHT22;9540;51.550;7.980;2022-10-31T09:58:16;18.00;99.90
18823;DHT22;9540;51.550;7.980;2022-10-31T10:00:46;17.90;99.90
18823;DHT22;9540;51.550;7.980;2022-10-31T10:03:24;18.00;99.90
18823;DHT22;9540;51.550;7.980;2022-10-31T10:06:03;18.20;99.90
18823;DHT22;9540;51.550;7.980;2022-10-31T10:08:34;18.40;99.90
18823;DHT22;9540;51.550;7.980;2022-10-31T10:11:08;18.40;99.90
18823;DHT22;9540;51.550;7.980;2022-10-31T10:13:59;18.50;99.90
18823;DHT22;9540;51.550;7.980;2022-10-31T10:16:39;18.50;99.90
18823;DHT22;9540;51.550;7.980;2022-10-31T10:19:21;18.50;99.90
18823;DHT22;9540;51.550;7.980;2022-10-31T10:21:58;18.50;99.90
18823;DHT22;9540;51.550;7.980;2022-10-31T10:24:36;18.50;99.90
18823;DHT22;9540;51.550;7.980;2022-10-31T10:27:15;18.40;99.90
18823;DHT22;9540;51.550;7.980;2022-10-31T10:29:47;18.40;99.90
18823;DHT22;9540;51.550;7.980;2022-10-31T10:32:20;18.40;99.90
18823;DHT22;9540;51.550;7.980;2022-10-31T10:34:51;18.20;99.90
18823;DHT22;9540;51.550;7.980;2022-10-31T10:37:26;18.10;99.90
18823;DHT22;9540;51.550;7.980;2022-10-31T10:39:59;18.10;99.90
18823;DHT22;9540;51.550;7.980;2022-10-31T10:42:30;18.10;99.90
18823;DHT22;9540;51.550;7.980;2022-10-31T10:45:26;17.90;99.90
18823;DHT22;9540;51.550;7.980;2022-10-31T10:48:14;17.80;99.90
18823;DHT22;9540;51.550;7.980;2022-10-31T10:50:46;17.70;99.90
18823;DHT22;9540;51.550;7.980;2022-10-31T10:53:34;17.60;99.90
18823;DHT22;9540;51.550;7.980;2022-10-31T10:56:18;17.60;99.90
18823;DHT22;9540;51.550;7.980;2022-10-31T10:58:48;17.60;99.90
18823;DHT22;9540;51.550;7.980;2022-10-31T11:01:15;17.60;99.90
18823;DHT22;9540;51.550;7.980;2022-10-31T11:03:42;17.60;99.90
18823;DHT22;9540;51.550;7.980;2022-10-31T11:06:19;17.60;99.90
18823;DHT22;9540;51.550;7.980;2022-10-31T11:08:52;17.70;99.90
18823;DHT22;9540;51.550;7.980;2022-10-31T11:11:29;17.80;99.90
18823;DHT22;9540;51.550;7.980;2022-10-31T11:14:03;17.90;99.90
18823;DHT22;9540;51.550;7.980;2022-10-31T11:16:33;18.20;99.90
18823;DHT22;9540;51.550;7.980;2022-10-31T11:19:07;18.40;99.90
18823;DHT22;9540;51.550;7.980;2022-10-31T11:21:35;18.80;99.90
18823;DHT22;9540;51.550;7.980;2022-10-31T11:24:08;19.10;99.90
18823;DHT22;9540;51.550;7.980;2022-10-31T11:26:40;19.50;99.90
18823;DHT22;9540;51.550;7.980;2022-10-31T11:29:14;19.80;99.90
18823;DHT22;9540;51.550;7.980;2022-10-31T11:31:42;20.10;99.90
18823;DHT22;9540;51.550;7.980;2022-10-31T11:34:18;20.20;99.90
18823;DHT22;9540;51.550;7.980;2022-10-31T11:36:46;20.20;99.90
18823;DHT22;9540;51.550;7.980;2022-10-31T11:39:18;20.30;99.90
18823;DHT22;9540;51.550;7.980;2022-10-31T11:41:47;20.30;99.90
18823;DHT22;9540;51.550;7.980;2022-10-31T11:44:17;20.20;99.90
18823;DHT22;9540;51.550;7.980;2022-10-31T11:46:47;20.00;99.90
18823;DHT22;9540;51.550;7.980;2022-10-31T11:49:18;19.90;99.90
18823;DHT22;9540;51.550;7.980;2022-10-31T11:51:48;20.00;99.90
18823;DHT22;9540;51.550;7.980;2022-10-31T11:54:21;20.00;99.90
18823;DHT22;9540;51.550;7.980;2022-10-31T11:56:49;20.20;99.90
18823;DHT22;9540;51.550;7.980;2022-10-31T11:59:26;20.30;99.90
18823;DHT22;9540;51.550;7.980;2022-10-31T12:01:55;20.30;99.90
18823;DHT22;9540;51.550;7.980;2022-10-31T12:04:32;20.20;99.90
18823;DHT22;9540;51.550;7.980;2022-10-31T12:07:00;20.10;99.90
18823;DHT22;9540;51.550;7.980;2022-10-31T12:09:32;20.30;99.90
18823;DHT22;9540;51.550;7.980;2022-10-31T12:12:14;20.60;99.90
18823;DHT22;9540;51.550;7.980;2022-10-31T12:14:53;20.80;99.90
18823;DHT22;9540;51.550;7.980;2022-10-31T12:17:23;20.70;99.90
18823;DHT22;9540;51.550;7.980;2022-10-31T12:20:01;20.40;99.90
18823;DHT22;9540;51.550;7.980;2022-10-31T12:22:39;20.30;99.90
18823;DHT22;9540;51.550;7.980;2022-10-31T12:25:21;20.20;99.90
18823;DHT22;9540;51.550;7.980;2022-10-31T12:28:24;20.00;99.90
18823;DHT22;9540;51.550;7.980;2022-10-31T12:31:03;19.90;99.90
18823;DHT22;9540;51.550;7.980;2022-10-31T12:33:45;19.70;99.90
18823;DHT22;9540;51.550;7.980;2022-10-31T12:36:39;19.60;99.90
18823;DHT22;9540;51.550;7.980;2022-10-31T12:39:30;19.60;99.90
18823;DHT22;9540;51.550;7.980;2022-10-31T12:42:09;19.70;99.90
18823;DHT22;9540;51.550;7.980;2022-10-31T12:45:05;19.70;99.90
18823;DHT22;9540;51.550;7.980;2022-10-31T12:47:55;19.80;99.90
18823;DHT22;9540;51.550;7.980;2022-10-31T12:50:41;19.80;99.90
18823;DHT22;9540;51.550;7.980;2022-10-31T12:53:30;19.70;99.90
18823;DHT22;9540;51.550;7.980;2022-10-31T12:56:21;19.70;99.90
18823;DHT22;9540;51.550;7.980;2022-10-31T12:58:56;19.80;99.90
18823;DHT22;9540;51.550;7.980;2022-10-31T13:01:29;19.90;99.90
18823;DHT22;9540;51.550;7.980;2022-10-31T13:04:04;19.90;99.90
18823;DHT22;9540;51.550;7.980;2022-10-31T13:06:37;19.80;99.90
18823;DHT22;9540;51.550;7.980;2022-10-31T13:09:08;19.80;99.90
18823;DHT22;9540;51.550;7.980;2022-10-31T13:11:39;19.90;99.90
18823;DHT22;9540;51.550;7.980;2022-10-31T13:14:12;19.90;99.90
18823;DHT22;9540;51.550;7.980;2022-10-31T13:16:44;20.00;99.90
18823;DHT22;9540;51.550;7.980;2022-10-31T13:19:16;20.00;99.90
18823;DHT22;9540;51.550;7.980;2022-10-31T13:21:53;19.90;99.90
18823;DHT22;9540;51.550;7.980;2022-10-31T13:24:23;19.70;99.90
18823;DHT22;9540;51.550;7.980;2022-10-31T13:26:54;19.70;99.90
18823;DHT22;9540;51.550;7.980;2022-10-31T13:29:25;19.70;99.90
18823;DHT22;9540;51.550;7.980;2022-10-31T13:31:54;19.60;99.90
18823;DHT22;9540;51.550;7.980;2022-10-31T13:34:26;19.50;99.90
18823;DHT22;9540;51.550;7.980;2022-10-31T13:37:00;19.40;99.90
18823;DHT22;9540;51.550;7.980;2022-10-31T13:39:38;19.40;99.90
18823;DHT22;9540;51.550;7.980;2022-10-31T13:42:14;19.40;99.90
18823;DHT22;9540;51.550;7.980;2022-10-31T13:44:43;19.30;99.90
18823;DHT22;9540;51.550;7.980;2022-10-31T13:47:26;19.30;99.90
18823;DHT22;9540;51.550;7.980;2022-10-31T13:50:18;19.30;99.90
18823;DHT22;9540;51.550;7.980;2022-10-31T13:52:45;19.30;99.90
18823;DHT22;9540;51.550;7.980;2022-10-31T13:55:37;19.20;99.90
18823;DHT22;9540;51.550;7.980;2022-10-31T13:58:05;19.20;99.90
18823;DHT22;9540;51.550;7.980;2022-10-31T14:00:58;19.20;99.90
18823;DHT22;9540;51.550;7.980;2022-10-31T14:03:25;19.20;99.90
18823;DHT22;9540;51.550;7.980;2022-10-31T14:05:55;19.10;99.90
18823;DHT22;9540;51.550;7.980;2022-10-31T14:08:23;19.10;99.90
18823;DHT22;9540;51.550;7.980;2022-10-31T14:10:51;19.10;99.90
18823;DHT22;9540;51.550;7.980;2022-10-31T14:13:22;19.10;99.90
18823;DHT22;9540;51.550;7.980;2022-10-31T14:15:56;19.10;99.90
18823;DHT22;9540;51.550;7.980;2022-10-31T14:18:28;19.00;99.90
18823;DHT22;9540;51.550;7.980;2022-10-31T14:20:55;19.00;99.90
18823;DHT22;9540;51.550;7.980;2022-10-31T14:23:40;19.00;99.90
18823;DHT22;9540;51.550;7.980;2022-10-31T14:26:19;19.00;99.90
18823;DHT22;9540;51.550;7.980;2022-10-31T14:28:49;19.00;99.90
18823;DHT22;9540;51.550;7.980;2022-10-31T14:31:42;19.00;99.90
18823;DHT22;9540;51.550;7.980;2022-10-31T14:34:23;18.80;99.90
18823;DHT22;9540;51.550;7.980;2022-10-31T14:36:59;18.80;99.90
18823;DHT22;9540;51.550;7.980;2022-10-31T14:39:32;18.80;99.90
18823;DHT22;9540;51.550;7.980;2022-10-31T14:42:13;18.70;99.90
18823;DHT22;9540;51.550;7.980;2022-10-31T14:45:17;18.60;99.90
18823;DHT22;9540;51.550;7.980;2022-10-31T14:48:02;18.60;99.90
18823;DHT22;9540;51.550;7.980;2022-10-31T14:50:45;18.50;99.90
18823;DHT22;9540;51.550;7.980;2022-10-31T14:53:17;18.50;99.90
18823;DHT22;9540;51.550;7.980;2022-10-31T14:55:48;18.40;99.90
18823;DHT22;9540;51.550;7.980;2022-10-31T14:58:18;18.40;99.90
18823;DHT22;9540;51.550;7.980;2022-10-31T15:00:53;18.40;99.90
18823;DHT22;9540;51.550;7.980;2022-10-31T15:03:26;18.30;99.90
18823;DHT22;9540;51.550;7.980;2022-10-31T15:05:56;18.30;99.90
18823;DHT22;9540;51.550;7.980;2022-10-31T15:08:32;18.30;99.90
18823;DHT22;9540;51.550;7.980;2022-10-31T15:11:03;18.30;99.90
18823;DHT22;9540;51.550;7.980;2022-10-31T15:13:30;18.30;99.90
18823;DHT22;9540;51.550;7.980;2022-10-31T15:15:57;18.20;99.90
18823;DHT22;9540;51.550;7.980;2022-10-31T15:18:27;18.10;99.90
18823;DHT22;9540;51.550;7.980;2022-10-31T15:20:56;18.00;99.90
18823;DHT22;9540;51.550;7.980;2022-10-31T15:23:25;17.90;99.90
18823;DHT22;9540;51.550;7.980;2022-10-31T15:25:58;17.80;99.90
18823;DHT22;9540;51.550;7.980;2022-10-31T15:28:26;17.70;99.90
18823;DHT22;9540;51.550;7.980;2022-10-31T15:30:55;17.60;99.90
18823;DHT22;9540;51.550;7.980;2022-10-31T15:33:24;17.50;99.90
18823;DHT22;9540;51.550;7.980;2022-10-31T15:35:57;17.30;99.90
18823;DHT22;9540;51.550;7.980;2022-10-31T15:38:25;17.20;99.90
18823;DHT22;9540;51.550;7.980;2022-10-31T15:40:59;17.00;99.90
18823;DHT22;9540;51.550;7.980;2022-10-31T15:43:29;16.80;99.90
18823;DHT22;9540;51.550;7.980;2022-10-31T15:45:58;16.70;99.90
18823;DHT22;9540;51.550;7.980;2022-10-31T15:48:26;16.60;99.90
18823;DHT22;9540;51.550;7.980;2022-10-31T15:50:55;16.50;99.90
18823;DHT22;9540;51.550;7.980;2022-10-31T15:53:25;16.50;99.90
18823;DHT22;9540;51.550;7.980;2022-10-31T15:55:55;16.30;99.90
18823;DHT22;9540;51.550;7.980;2022-10-31T15:58:23;16.30;99.90
18823;DHT22;9540;51.550;7.980;2022-10-31T16:01:01;16.20;99.90
18823;DHT22;9540;51.550;7.980;2022-10-31T16:03:30;16.10;99.90
18823;DHT22;9540;51.550;7.980;2022-10-31T16:06:00;16.10;99.90
18823;DHT22;9540;51.550;7.980;2022-10-31T16:08:33;16.10;99.90
18823;DHT22;9540;51.550;7.980;2022-10-31T16:11:14;16.00;99.90
18823;DHT22;9540;51.550;7.980;2022-10-31T16:13:53;15.90;99.90